Time;durP1;ratioP1;P1;durP2;ratioP2;P2;SDS_P1;SDS_P2;PMS_P1;PMS_P2;Temp;Humidity;BMP_temperature;BMP_pressure;BME280_temperature;BME280_humidity;BME280_pressure;Samples;Min_cycle;Max_cycle;Signal;HPM_P1;HPM_P2
2023/09/21 04:05:31;;;;;;;0.30;0.30;;;15.20;99.90;;;;;;5644482;23;20832;-69
2023/09/21 04:07:58;;;;;;;0.33;0.33;;;15.20;99.90;;;;;;4976179;28;20469;-71
2023/09/21 04:10:23;;;;;;;0.30;0.30;;;15.20;99.90;;;;;;4994094;28;20394;-69
2023/09/21 04:12:56;;;;;;;0.30;0.30;;;15.20;99.90;;;;;;4993905;28;20446;-68
2023/09/21 04:15:28;;;;;;;0.30;0.20;;;15.20;99.90;;;;;;4993374;28;20187;-68
2023/09/21 04:17:55;;;;;;;0.40;0.30;;;15.20;99.90;;;;;;4993900;28;20497;-68
2023/09/21 04:20:21;;;;;;;0.30;0.30;;;15.20;99.90;;;;;;4993741;28;20525;-68
2023/09/21 04:22:49;;;;;;;0.30;0.30;;;15.20;99.90;;;;;;4997328;28;20517;-69
2023/09/21 04:25:16;;;;;;;0.30;0.30;;;15.30;99.90;;;;;;4997107;28;20423;-69
2023/09/21 04:27:44;;;;;;;0.30;0.30;;;15.20;99.90;;;;;;4997112;28;20485;-68
2023/09/21 04:30:14;;;;;;;0.30;0.30;;;15.20;99.90;;;;;;4997251;28;20406;-70
2023/09/21 04:32:45;;;;;;;0.30;0.30;;;15.20;99.90;;;;;;4997258;28;20413;-69
2023/09/21 04:35:12;;;;;;;0.30;0.30;;;15.20;99.90;;;;;;4978793;28;20440;-68
2023/09/21 04:37:40;;;;;;;0.30;0.20;;;15.30;99.90;;;;;;4997307;28;20506;-67
2023/09/21 04:40:11;;;;;;;0.30;0.30;;;15.30;99.90;;;;;;4997109;28;20470;-68
2023/09/21 04:42:40;;;;;;;0.30;0.20;;;15.40;99.90;;;;;;4996999;28;20415;-68
2023/09/21 04:45:09;;;;;;;0.30;0.30;;;15.30;99.90;;;;;;4996613;28;20946;-69
2023/09/21 04:47:39;;;;;;;0.30;0.20;;;15.40;99.90;;;;;;4997111;28;20764;-69
2023/09/21 04:50:05;;;;;;;0.30;0.20;;;15.40;99.90;;;;;;4996849;28;20417;-70
2023/09/21 04:52:34;;;;;;;0.30;0.30;;;15.40;99.90;;;;;;4996980;28;20443;-70
2023/09/21 04:55:04;;;;;;;0.30;0.30;;;15.40;99.90;;;;;;4996325;28;20434;-69
2023/09/21 04:57:30;;;;;;;0.40;0.40;;;15.50;99.90;;;;;;4996452;28;20418;-68
2023/09/21 04:59:59;;;;;;;0.30;0.20;;;15.50;99.90;;;;;;4996547;28;20960;-69
2023/09/21 05:02:26;;;;;;;0.30;0.20;;;15.50;99.90;;;;;;4996763;28;20402;-70
2023/09/21 05:04:52;;;;;;;0.30;0.30;;;15.50;99.90;;;;;;4996231;28;20925;-68
2023/09/21 05:07:18;;;;;;;0.30;0.30;;;15.60;99.90;;;;;;4996458;28;20426;-66
2023/09/21 05:09:44;;;;;;;0.60;0.60;;;15.60;99.90;;;;;;4996651;28;20450;-68
2023/09/21 05:12:10;;;;;;;0.30;0.30;;;15.60;99.90;;;;;;4996792;28;20423;-67
2023/09/21 05:14:37;;;;;;;0.30;0.30;;;15.70;99.90;;;;;;4996276;28;20408;-69
2023/09/21 05:17:05;;;;;;;0.30;0.30;;;15.70;99.90;;;;;;4996511;28;20440;-67
2023/09/21 05:19:34;;;;;;;0.30;0.30;;;15.60;99.90;;;;;;4996589;28;20809;-62
2023/09/21 05:22:04;;;;;;;0.30;0.30;;;15.60;99.90;;;;;;4996572;28;20450;-62
2023/09/21 05:24:30;;;;;;;0.30;0.20;;;15.60;99.90;;;;;;4996005;28;20407;-61
2023/09/21 05:26:56;;;;;;;0.30;0.30;;;15.50;99.90;;;;;;4996126;28;20737;-64
2023/09/21 05:29:22;;;;;;;0.30;0.30;;;15.50;99.90;;;;;;4995871;28;20426;-70
2023/09/21 05:31:49;;;;;;;0.30;0.30;;;15.50;99.90;;;;;;4995966;28;20602;-73
2023/09/21 05:34:15;;;;;;;0.30;0.30;;;15.50;99.90;;;;;;4995691;28;20415;-69
2023/09/21 05:36:44;;;;;;;0.30;0.30;;;15.50;99.90;;;;;;4978506;28;20481;-68
2023/09/21 05:39:09;;;;;;;0.33;0.33;;;15.60;99.90;;;;;;4995682;28;20478;-68
2023/09/21 05:41:35;;;;;;;0.30;0.20;;;15.70;99.90;;;;;;4995656;28;20936;-70
2023/09/21 05:44:01;;;;;;;0.30;0.23;;;15.60;99.90;;;;;;4995205;28;20252;-68
2023/09/21 05:46:26;;;;;;;0.30;0.20;;;15.70;99.90;;;;;;4995381;28;20230;-68
2023/09/21 05:48:52;;;;;;;0.60;0.60;;;15.70;99.90;;;;;;4995571;28;20498;-68
2023/09/21 05:51:18;;;;;;;0.30;0.20;;;15.80;99.90;;;;;;4977871;28;20180;-70
2023/09/21 05:53:43;;;;;;;0.30;0.20;;;15.90;99.90;;;;;;4995100;28;20219;-69
2023/09/21 05:56:09;;;;;;;0.30;0.20;;;15.90;99.90;;;;;;4995416;28;20211;-68
2023/09/21 05:58:36;;;;;;;0.40;0.30;;;15.90;99.90;;;;;;4995321;28;20294;-68
2023/09/21 06:01:02;;;;;;;0.40;0.40;;;16.00;99.90;;;;;;4995202;28;20494;-70
2023/09/21 06:03:28;;;;;;;0.93;0.80;;;16.10;99.90;;;;;;4995089;28;20420;-68
2023/09/21 06:05:54;;;;;;;0.30;0.30;;;16.20;99.90;;;;;;4994731;28;20463;-69
2023/09/21 06:08:20;;;;;;;0.30;0.30;;;16.30;99.90;;;;;;4995367;28;20420;-69
2023/09/21 06:10:46;;;;;;;0.40;0.40;;;16.30;99.90;;;;;;4995131;28;20181;-68
2023/09/21 06:13:12;;;;;;;0.30;0.20;;;16.30;99.90;;;;;;4995162;28;20512;-69
2023/09/21 06:15:45;;;;;;;0.30;0.30;;;16.30;99.90;;;;;;4995013;28;20429;-68
2023/09/21 06:18:11;;;;;;;0.30;0.30;;;16.30;99.90;;;;;;4995425;28;20495;-68
2023/09/21 06:20:37;;;;;;;0.30;0.30;;;16.40;99.90;;;;;;4995424;28;20966;-68
2023/09/21 06:23:04;;;;;;;0.60;0.50;;;16.40;99.90;;;;;;4995338;28;20173;-67
2023/09/21 06:25:30;;;;;;;0.50;0.50;;;16.50;99.90;;;;;;4994923;28;20664;-68
2023/09/21 06:27:56;;;;;;;0.30;0.20;;;16.50;99.90;;;;;;4995147;28;20566;-70
2023/09/21 06:30:23;;;;;;;0.30;0.20;;;16.60;99.90;;;;;;4994971;28;20186;-69
2023/09/21 06:32:49;;;;;;;0.30;0.27;;;16.70;99.90;;;;;;4995149;28;20276;-70
2023/09/21 06:35:14;;;;;;;0.30;0.20;;;16.80;99.90;;;;;;4994560;28;20767;-67
2023/09/21 06:37:40;;;;;;;0.30;0.30;;;16.90;99.90;;;;;;4995085;28;20536;-67
2023/09/21 06:40:06;;;;;;;0.30;0.20;;;17.00;99.90;;;;;;4994838;28;20468;-67
2023/09/21 06:42:33;;;;;;;0.37;0.37;;;17.10;99.90;;;;;;4995013;28;20182;-68
2023/09/21 06:44:58;;;;;;;0.70;0.70;;;17.20;99.90;;;;;;4993924;28;20425;-68
2023/09/21 06:47:28;;;;;;;0.30;0.20;;;17.30;99.90;;;;;;4994038;28;20459;-65
2023/09/21 06:49:54;;;;;;;0.30;0.20;;;17.40;99.90;;;;;;4975285;28;20180;-69
2023/09/21 06:52:21;;;;;;;0.30;0.30;;;17.50;99.90;;;;;;4975219;28;20833;-68
2023/09/21 06:54:49;;;;;;;0.30;0.20;;;17.60;99.90;;;;;;4957459;28;20441;-68
2023/09/21 06:57:15;;;;;;;0.30;0.30;;;17.70;99.90;;;;;;4975371;28;20505;-69
2023/09/21 06:59:42;;;;;;;0.30;0.20;;;17.80;99.90;;;;;;4975233;28;20486;-69
2023/09/21 07:02:07;;;;;;;0.30;0.30;;;18.00;99.90;;;;;;4988408;28;20809;-69
2023/09/21 07:04:33;;;;;;;0.30;0.30;;;18.10;99.90;;;;;;4994386;28;20422;-69
2023/09/21 07:07:05;;;;;;;0.30;0.20;;;18.20;99.90;;;;;;4994160;28;20484;-68
2023/09/21 07:09:35;;;;;;;0.30;0.23;;;18.30;99.90;;;;;;4994439;28;20414;-69
2023/09/21 07:12:02;;;;;;;0.30;0.20;;;18.40;99.90;;;;;;4994413;28;20770;-67
2023/09/21 07:14:28;;;;;;;0.30;0.20;;;18.50;99.90;;;;;;4993551;28;20415;-69
2023/09/21 07:16:55;;;;;;;0.30;0.20;;;18.60;99.90;;;;;;4980345;28;20424;-69
2023/09/21 07:19:20;;;;;;;0.30;0.27;;;18.60;99.90;;;;;;4974580;28;20467;-68
2023/09/21 07:21:46;;;;;;;0.30;0.30;;;18.70;99.90;;;;;;4974908;28;20419;-67
2023/09/21 07:24:11;;;;;;;0.30;0.20;;;18.80;99.90;;;;;;4986680;28;20187;-68
2023/09/21 07:26:38;;;;;;;0.30;0.20;;;18.90;99.90;;;;;;4993843;28;20669;-68
2023/09/21 07:29:05;;;;;;;0.30;0.30;;;19.00;99.90;;;;;;4994042;28;20574;-68
2023/09/21 07:31:33;;;;;;;0.30;0.30;;;19.10;99.90;;;;;;4993640;28;20442;-67
2023/09/21 07:34:02;;;;;;;0.30;0.30;;;19.20;99.90;;;;;;4993854;28;20407;-67
2023/09/21 07:36:27;;;;;;;0.30;0.30;;;19.40;99.90;;;;;;4993990;28;20437;-68
2023/09/21 07:38:55;;;;;;;0.30;0.30;;;19.60;99.90;;;;;;4987393;28;20459;-68
2023/09/21 07:41:20;;;;;;;0.30;0.27;;;19.90;99.90;;;;;;4974644;28;20696;-67
2023/09/21 07:43:48;;;;;;;0.30;0.30;;;20.20;99.90;;;;;;4974149;28;20504;-67
2023/09/21 07:46:16;;;;;;;0.30;0.30;;;20.40;99.90;;;;;;4974499;28;20191;-68
2023/09/21 07:48:42;;;;;;;0.30;0.30;;;20.70;99.90;;;;;;4974688;28;20806;-67
2023/09/21 07:51:08;;;;;;;0.30;0.30;;;21.00;99.90;;;;;;4974449;28;20422;-68
2023/09/21 07:53:35;;;;;;;0.30;0.20;;;21.20;99.90;;;;;;4979985;28;20423;-67
2023/09/21 07:56:04;;;;;;;2.10;0.50;;;21.30;99.90;;;;;;4994775;28;20445;-68
2023/09/21 07:58:30;;;;;;;0.50;0.50;;;21.60;99.90;;;;;;4998045;28;20483;-68
2023/09/21 08:00:56;;;;;;;0.30;0.20;;;22.30;99.90;;;;;;4997906;28;20427;-69
2023/09/21 08:03:26;;;;;;;0.40;0.40;;;23.30;99.90;;;;;;4997830;28;20411;-68
2023/09/21 08:05:59;;;;;;;0.30;0.30;;;24.60;99.90;;;;;;4997259;28;20223;-69
2023/09/21 08:08:25;;;;;;;0.33;0.33;;;25.90;99.50;;;;;;4990974;28;20421;-68
2023/09/21 08:10:52;;;;;;;0.30;0.30;;;26.60;97.30;;;;;;4978224;28;20398;-69
2023/09/21 08:13:19;;;;;;;0.50;0.37;;;26.90;96.20;;;;;;4978451;28;20446;-67
2023/09/21 08:15:46;;;;;;;0.77;0.77;;;27.10;95.70;;;;;;4977958;28;20470;-68
2023/09/21 08:18:12;;;;;;;0.63;0.53;;;27.70;94.90;;;;;;4978113;28;20995;-69
2023/09/21 08:20:39;;;;;;;0.30;0.30;;;28.40;93.60;;;;;;4978257;28;20422;-68
2023/09/21 08:23:06;;;;;;;0.30;0.30;;;29.00;92.00;;;;;;4991808;28;20408;-68
2023/09/21 08:25:33;;;;;;;0.30;0.30;;;29.10;91.60;;;;;;4997204;28;20462;-68
2023/09/21 08:27:59;;;;;;;0.40;0.40;;;29.10;91.70;;;;;;4997601;28;20434;-69
2023/09/21 08:30:26;;;;;;;0.30;0.20;;;28.90;91.30;;;;;;4997388;28;20435;-68
2023/09/21 08:32:51;;;;;;;0.30;0.30;;;28.40;91.70;;;;;;4997360;28;20916;-69
2023/09/21 08:35:17;;;;;;;0.40;0.40;;;27.90;92.30;;;;;;4996864;28;20445;-68
2023/09/21 08:37:43;;;;;;;0.30;0.20;;;27.30;93.40;;;;;;4983446;28;20188;-68
2023/09/21 08:40:09;;;;;;;0.30;0.20;;;27.00;94.00;;;;;;4977636;28;20243;-68
2023/09/21 08:42:36;;;;;;;0.40;0.40;;;26.60;94.10;;;;;;4977882;28;20445;-68
2023/09/21 08:45:07;;;;;;;0.30;0.30;;;26.30;94.70;;;;;;4977390;28;20444;-68
2023/09/21 08:47:33;;;;;;;0.30;0.30;;;26.00;95.00;;;;;;4977493;28;20432;-68
2023/09/21 08:50:00;;;;;;;0.33;0.33;;;25.70;95.60;;;;;;4977695;28;20377;-68
2023/09/21 08:52:27;;;;;;;0.30;0.30;;;25.60;95.70;;;;;;4990565;28;20189;-68
2023/09/21 08:54:52;;;;;;;0.40;0.40;;;25.50;96.10;;;;;;4996697;28;20404;-68
2023/09/21 08:57:18;;;;;;;0.40;0.40;;;25.40;96.30;;;;;;4996872;28;20391;-69
2023/09/21 08:59:47;;;;;;;0.60;0.60;;;25.40;96.50;;;;;;4981699;28;20244;-69
2023/09/21 09:02:14;;;;;;;0.30;0.30;;;25.40;96.50;;;;;;4977498;28;20179;-69
2023/09/21 09:04:43;;;;;;;0.30;0.30;;;25.40;96.80;;;;;;4976834;28;20420;-69
2023/09/21 09:07:12;;;;;;;0.60;0.50;;;25.70;96.60;;;;;;4976620;28;20457;-69
2023/09/21 09:09:39;;;;;;;0.30;0.30;;;26.00;95.80;;;;;;4977265;28;20498;-69
2023/09/21 09:12:23;;;;;;;0.30;0.20;;;26.20;95.40;;;;;;4977223;28;20423;-68
2023/09/21 09:14:50;;;;;;;0.57;0.47;;;26.40;95.10;;;;;;4994046;28;20454;-69
2023/09/21 09:17:16;;;;;;;0.40;0.30;;;26.70;95.10;;;;;;4996531;28;20391;-70
2023/09/21 09:19:43;;;;;;;0.50;0.50;;;27.10;94.90;;;;;;4996319;28;20790;-69
2023/09/21 09:22:13;;;;;;;0.30;0.30;;;27.50;94.50;;;;;;4996637;28;20426;-68
2023/09/21 09:24:39;;;;;;;0.30;0.30;;;27.70;93.60;;;;;;4996130;28;20393;-69
2023/09/21 09:27:04;;;;;;;0.50;0.40;;;27.80;93.20;;;;;;4996415;28;20453;-68
2023/09/21 09:29:30;;;;;;;0.60;0.60;;;28.00;93.10;;;;;;4978872;28;20180;-69
2023/09/21 09:31:56;;;;;;;0.30;0.20;;;28.10;93.20;;;;;;4976851;28;20206;-69
2023/09/21 09:34:22;;;;;;;0.40;0.40;;;28.70;93.10;;;;;;4976527;28;20188;-69
2023/09/21 09:36:51;;;;;;;0.60;0.30;;;29.50;90.70;;;;;;4976788;28;20583;-68
2023/09/21 09:39:18;;;;;;;0.30;0.30;;;30.00;89.70;;;;;;4976474;28;20426;-69
2023/09/21 09:41:46;;;;;;;0.60;0.60;;;30.00;89.70;;;;;;4976832;28;20440;-68
2023/09/21 09:44:14;;;;;;;0.50;0.30;;;29.80;89.40;;;;;;4992791;28;21022;-68
2023/09/21 09:46:43;;;;;;;0.50;0.50;;;29.30;90.50;;;;;;4995813;28;20449;-68
2023/09/21 09:49:10;;;;;;;0.43;0.43;;;29.00;91.20;;;;;;4996151;28;20381;-69
2023/09/21 09:51:47;;;;;;;0.60;0.60;;;28.90;91.30;;;;;;4995773;28;20389;-69
2023/09/21 09:54:14;;;;;;;0.30;0.20;;;29.10;91.50;;;;;;4995557;28;20390;-69
2023/09/21 09:56:44;;;;;;;0.30;0.30;;;29.50;91.20;;;;;;4995550;28;20421;-69
2023/09/21 09:59:11;;;;;;;0.77;0.57;;;30.20;90.40;;;;;;4976905;28;20537;-70
2023/09/21 10:01:44;;;;;;;0.40;0.40;;;30.80;89.30;;;;;;4976125;28;20461;-69
2023/09/21 10:04:10;;;;;;;0.30;0.30;;;31.30;87.30;;;;;;4975850;28;20415;-71
2023/09/21 10:06:36;;;;;;;0.33;0.33;;;31.70;83.10;;;;;;4975796;28;20481;-69
2023/09/21 10:09:11;;;;;;;0.40;0.40;;;31.90;82.00;;;;;;4976163;28;20566;-70
2023/09/21 10:11:46;;;;;;;0.40;0.40;;;31.90;81.70;;;;;;4976117;28;20446;-69
2023/09/21 10:14:18;;;;;;;0.30;0.30;;;31.60;82.70;;;;;;4975567;28;20494;-70
2023/09/21 10:16:54;;;;;;;0.40;0.40;;;31.80;80.10;;;;;;4976203;28;20757;-70
2023/09/21 10:19:29;;;;;;;0.37;0.33;;;32.20;79.50;;;;;;4974958;28;20430;-70
2023/09/21 10:22:20;;;;;;;0.30;0.30;;;32.40;79.10;;;;;;4976000;28;20418;-69
2023/09/21 10:24:58;;;;;;;0.30;0.30;;;32.40;78.80;;;;;;4975449;28;20438;-69
2023/09/21 10:27:33;;;;;;;0.30;0.30;;;32.50;76.80;;;;;;4966276;28;20403;-70
2023/09/21 10:30:06;;;;;;;0.30;0.30;;;32.40;78.00;;;;;;4995074;28;20424;-69
2023/09/21 10:32:43;;;;;;;0.30;0.30;;;32.20;76.90;;;;;;4995324;28;20426;-69
2023/09/21 10:35:14;;;;;;;0.30;0.30;;;31.90;78.10;;;;;;4994393;28;20426;-69
2023/09/21 10:37:40;;;;;;;0.60;0.60;;;31.60;80.20;;;;;;4994925;28;20414;-69
2023/09/21 10:40:09;;;;;;;0.40;0.40;;;31.00;79.60;;;;;;4994971;28;20462;-68
2023/09/21 10:42:36;;;;;;;0.40;0.40;;;30.80;81.00;;;;;;4982889;28;20180;-70
2023/09/21 10:45:10;;;;;;;0.70;0.60;;;30.70;81.60;;;;;;4957319;28;20487;-70
2023/09/21 10:47:47;;;;;;;0.30;0.30;;;30.60;80.10;;;;;;4975280;28;20471;-70
2023/09/21 10:50:14;;;;;;;0.40;0.40;;;30.40;79.80;;;;;;4990734;28;20409;-68
2023/09/21 10:52:45;;;;;;;0.50;0.40;;;30.30;81.10;;;;;;4994743;28;20935;-68
2023/09/21 10:55:13;;;;;;;0.40;0.40;;;30.20;80.40;;;;;;4994134;28;20440;-69
2023/09/21 10:57:41;;;;;;;0.30;0.20;;;30.20;80.40;;;;;;4994547;28;20394;-68
2023/09/21 11:00:08;;;;;;;0.87;0.63;;;30.30;81.00;;;;;;4994663;28;20482;-69
2023/09/21 11:02:39;;;;;;;0.40;0.40;;;30.40;80.10;;;;;;4994450;28;20423;-69
2023/09/21 11:05:09;;;;;;;0.40;0.30;;;30.60;79.30;;;;;;4993937;28;20417;-69
2023/09/21 11:07:36;;;;;;;0.30;0.30;;;30.60;79.30;;;;;;4994516;28;20872;-69
2023/09/21 11:10:06;;;;;;;0.33;0.33;;;30.40;79.50;;;;;;4994801;28;20390;-69
2023/09/21 11:12:32;;;;;;;0.47;0.30;;;30.10;80.10;;;;;;4994411;28;20381;-69
2023/09/21 11:14:58;;;;;;;0.50;0.50;;;30.00;81.50;;;;;;4993971;28;20904;-68
2023/09/21 11:17:24;;;;;;;0.60;0.50;;;30.00;83.40;;;;;;4994452;28;20519;-69
2023/09/21 11:19:50;;;;;;;0.30;0.30;;;30.10;83.10;;;;;;4993944;28;20463;-69
2023/09/21 11:22:16;;;;;;;0.30;0.30;;;30.10;81.80;;;;;;4994022;28;20194;-67
2023/09/21 11:24:42;;;;;;;0.40;0.40;;;29.90;79.90;;;;;;4993971;28;20195;-66
2023/09/21 11:27:14;;;;;;;0.50;0.50;;;29.60;80.90;;;;;;4994250;28;20399;-67
2023/09/21 11:29:41;;;;;;;0.33;0.30;;;29.40;81.10;;;;;;4993775;28;20423;-68
2023/09/21 11:32:17;;;;;;;0.30;0.30;;;29.30;81.40;;;;;;4994234;28;20405;-66
2023/09/21 11:34:44;;;;;;;0.40;0.30;;;29.30;80.80;;;;;;4993741;28;20774;-68
2023/09/21 11:37:12;;;;;;;0.40;0.30;;;29.20;81.20;;;;;;4993982;28;20473;-68
2023/09/21 11:39:48;;;;;;;0.30;0.30;;;29.10;82.30;;;;;;4976762;28;20549;-69
2023/09/21 11:42:18;;;;;;;0.40;0.30;;;28.90;81.10;;;;;;4994313;28;20416;-67
2023/09/21 11:44:49;;;;;;;0.30;0.30;;;28.60;82.20;;;;;;4993637;28;20405;-70
2023/09/21 11:47:15;;;;;;;0.30;0.30;;;28.40;84.10;;;;;;4993924;28;20389;-70
2023/09/21 11:49:43;;;;;;;0.30;0.20;;;28.30;85.20;;;;;;4993901;28;20421;-68
2023/09/21 11:52:10;;;;;;;0.30;0.30;;;28.20;86.20;;;;;;4993327;28;20400;-69
2023/09/21 11:54:41;;;;;;;0.30;0.20;;;28.10;86.70;;;;;;4992466;28;20951;-68
2023/09/21 11:57:09;;;;;;;0.50;0.50;;;28.00;85.70;;;;;;4994035;28;20740;-69
2023/09/21 11:59:39;;;;;;;0.40;0.40;;;27.80;85.80;;;;;;4993669;28;20781;-68
2023/09/21 12:02:09;;;;;;;0.30;0.30;;;27.80;86.60;;;;;;4993884;28;20378;-70
2023/09/21 12:04:39;;;;;;;0.30;0.30;;;27.80;89.00;;;;;;4993262;28;20414;-68
2023/09/21 12:07:05;;;;;;;0.30;0.20;;;27.90;88.30;;;;;;4993709;28;20401;-69
2023/09/21 12:09:36;;;;;;;0.30;0.30;;;27.90;87.40;;;;;;4993882;28;20414;-69
2023/09/21 12:12:04;;;;;;;0.57;0.30;;;28.00;86.40;;;;;;4993842;28;20400;-68
2023/09/21 12:14:29;;;;;;;0.30;0.30;;;27.90;85.10;;;;;;4993126;28;20451;-69
2023/09/21 12:16:55;;;;;;;0.30;0.30;;;27.80;85.00;;;;;;4993629;28;20938;-68
2023/09/21 12:19:23;;;;;;;0.30;0.30;;;27.80;85.80;;;;;;4993554;28;20320;-70
2023/09/21 12:21:48;;;;;;;0.37;0.37;;;27.90;86.30;;;;;;4993782;28;20433;-70
2023/09/21 12:24:15;;;;;;;0.30;0.20;;;28.00;86.30;;;;;;4993123;28;20407;-65
2023/09/21 12:26:41;;;;;;;0.30;0.30;;;28.10;87.70;;;;;;4993494;28;20199;-69
2023/09/21 12:29:10;;;;;;;0.30;0.20;;;28.20;87.80;;;;;;4993438;28;20944;-74
2023/09/21 12:31:37;;;;;;;0.30;0.30;;;28.40;88.20;;;;;;4993542;28;20837;-70
2023/09/21 12:34:02;;;;;;;0.60;0.50;;;28.70;88.10;;;;;;4993024;28;20392;-70
2023/09/21 12:36:28;;;;;;;0.30;0.30;;;28.90;87.00;;;;;;4993596;28;20409;-74
2023/09/21 12:38:54;;;;;;;0.40;0.40;;;29.10;83.70;;;;;;4993359;28;20554;-74
2023/09/21 12:41:20;;;;;;;0.30;0.30;;;29.20;82.20;;;;;;4993581;28;20382;-69
2023/09/21 12:43:46;;;;;;;0.30;0.30;;;29.20;83.00;;;;;;4996727;28;20254;-69
2023/09/21 12:46:12;;;;;;;0.30;0.30;;;29.20;84.30;;;;;;4986074;28;20976;-69
2023/09/21 12:48:38;;;;;;;1.07;0.33;;;29.30;84.50;;;;;;4988159;28;20441;-75
2023/09/21 12:51:04;;;;;;;0.30;0.30;;;29.50;85.90;;;;;;4996141;28;20258;-69
2023/09/21 12:53:30;;;;;;;0.30;0.30;;;29.60;84.10;;;;;;4996773;28;20410;-77
2023/09/21 12:55:56;;;;;;;0.30;0.30;;;29.80;84.00;;;;;;4996153;28;20420;-73
2023/09/21 12:58:23;;;;;;;0.93;0.43;;;29.90;83.80;;;;;;4996497;28;20396;-69
2023/09/21 13:00:49;;;;;;;0.70;0.67;;;29.90;83.20;;;;;;4996764;28;20381;-69
2023/09/21 13:03:15;;;;;;;0.63;0.63;;;29.80;80.90;;;;;;4996795;28;20426;-76
2023/09/21 13:05:45;;;;;;;0.30;0.30;;;29.60;82.30;;;;;;4996115;28;20417;-76
2023/09/21 13:08:12;;;;;;;0.30;0.20;;;29.60;83.00;;;;;;4996623;28;20851;-72
2023/09/21 13:10:39;;;;;;;0.30;0.30;;;29.50;83.50;;;;;;4979110;28;20929;-77
2023/09/21 13:13:05;;;;;;;0.40;0.40;;;29.40;83.20;;;;;;4996852;28;20378;-76
2023/09/21 13:15:30;;;;;;;0.60;0.40;;;29.40;83.60;;;;;;4996221;28;20517;-69
2023/09/21 13:17:57;;;;;;;0.30;0.20;;;29.30;84.40;;;;;;4996634;28;20569;-77
2023/09/21 13:20:23;;;;;;;0.30;0.20;;;29.20;83.10;;;;;;4996556;28;20534;-69
2023/09/21 13:22:49;;;;;;;0.30;0.20;;;29.30;83.00;;;;;;4978880;28;20907;-76
2023/09/21 13:25:15;;;;;;;0.30;0.30;;;29.30;83.00;;;;;;4996022;28;20442;-76
2023/09/21 13:27:40;;;;;;;0.40;0.30;;;29.50;81.50;;;;;;4996586;28;20179;-76
2023/09/21 13:30:07;;;;;;;0.30;0.20;;;29.50;81.90;;;;;;4996400;28;20403;-69
2023/09/21 13:32:34;;;;;;;0.50;0.50;;;29.50;81.80;;;;;;4996422;28;20176;-77
2023/09/21 13:35:00;;;;;;;0.40;0.30;;;29.60;82.00;;;;;;4996032;28;20434;-68
2023/09/21 13:37:25;;;;;;;0.30;0.30;;;29.60;81.80;;;;;;4996433;28;20421;-68
2023/09/21 13:39:52;;;;;;;0.40;0.40;;;29.60;81.50;;;;;;4996036;28;20665;-69
2023/09/21 13:42:18;;;;;;;0.40;0.40;;;29.50;82.40;;;;;;4996104;28;20167;-68
2023/09/21 13:44:43;;;;;;;0.30;0.30;;;29.40;81.60;;;;;;4996042;28;20434;-76
2023/09/21 13:47:09;;;;;;;0.30;0.30;;;29.20;81.60;;;;;;4996043;28;20172;-76
2023/09/21 13:49:35;;;;;;;0.37;0.37;;;29.10;81.80;;;;;;4996049;28;20203;-68
2023/09/21 13:52:01;;;;;;;0.30;0.30;;;29.20;81.70;;;;;;4996089;28;20167;-76
2023/09/21 13:54:27;;;;;;;0.30;0.27;;;29.20;81.10;;;;;;4995988;28;20418;-75
2023/09/21 13:56:53;;;;;;;0.30;0.20;;;29.20;80.90;;;;;;4995744;28;20401;-67
2023/09/21 13:59:20;;;;;;;0.50;0.40;;;29.10;81.80;;;;;;4995647;28;20968;-68
2023/09/21 14:01:46;;;;;;;0.30;0.30;;;29.10;81.70;;;;;;4996015;28;20163;-67
2023/09/21 14:04:12;;;;;;;0.50;0.50;;;29.10;81.90;;;;;;4995582;28;20447;-76
2023/09/21 14:06:38;;;;;;;0.40;0.40;;;29.30;81.70;;;;;;4995373;28;20768;-68
2023/09/21 14:09:04;;;;;;;0.30;0.20;;;29.30;81.40;;;;;;4995485;28;20214;-76
2023/09/21 14:11:30;;;;;;;0.30;0.20;;;29.30;81.50;;;;;;4995568;28;20291;-67
2023/09/21 14:13:56;;;;;;;0.30;0.20;;;29.30;81.60;;;;;;4995212;28;20406;-76
2023/09/21 14:16:22;;;;;;;0.40;0.33;;;29.40;81.40;;;;;;4995653;28;20452;-69
2023/09/21 14:18:48;;;;;;;0.70;0.70;;;29.50;81.80;;;;;;4995409;28;20282;-68
2023/09/21 14:21:13;;;;;;;0.30;0.20;;;29.60;81.60;;;;;;4977959;28;20176;-69
2023/09/21 14:23:39;;;;;;;0.30;0.30;;;29.60;80.60;;;;;;4994783;28;20172;-76
2023/09/21 14:26:05;;;;;;;0.30;0.20;;;29.60;80.80;;;;;;4995070;28;20306;-72
2023/09/21 14:28:31;;;;;;;0.50;0.50;;;29.60;80.50;;;;;;4995060;28;20282;-68
2023/09/21 14:31:00;;;;;;;0.57;0.40;;;29.40;80.90;;;;;;4995017;28;20451;-67
2023/09/21 14:33:27;;;;;;;0.40;0.30;;;29.20;81.50;;;;;;4995103;28;20172;-61
2023/09/21 14:35:52;;;;;;;0.30;0.20;;;29.00;81.70;;;;;;4994546;28;20408;-62
2023/09/21 14:38:18;;;;;;;0.33;0.33;;;28.90;82.10;;;;;;4994609;28;20385;-63
2023/09/21 14:40:44;;;;;;;0.30;0.30;;;28.80;82.70;;;;;;4994802;28;20214;-62
2023/09/21 14:43:10;;;;;;;0.30;0.30;;;28.70;83.50;;;;;;4994955;28;20283;-62
2023/09/21 14:45:36;;;;;;;0.30;0.20;;;28.60;82.80;;;;;;4994607;28;20804;-61
2023/09/21 14:48:05;;;;;;;0.57;0.57;;;28.50;83.00;;;;;;4994801;28;20502;-62
2023/09/21 14:50:31;;;;;;;0.30;0.30;;;28.50;84.10;;;;;;4994809;28;20183;-62
2023/09/21 14:52:58;;;;;;;0.30;0.20;;;28.50;84.30;;;;;;4994677;28;20416;-62
2023/09/21 14:55:23;;;;;;;0.30;0.20;;;28.50;83.60;;;;;;4994279;28;20424;-62
2023/09/21 14:57:49;;;;;;;0.40;0.30;;;28.50;84.10;;;;;;4994743;28;20183;-61
2023/09/21 15:00:21;;;;;;;0.47;0.47;;;28.60;84.60;;;;;;4994390;28;20210;-62
2023/09/21 15:02:50;;;;;;;0.30;0.20;;;28.70;84.70;;;;;;4994638;28;20485;-61
2023/09/21 15:05:16;;;;;;;0.30;0.30;;;28.70;85.10;;;;;;4993412;28;20426;-63
2023/09/21 15:07:41;;;;;;;0.57;0.57;;;28.70;85.70;;;;;;4994263;28;20526;-72
2023/09/21 15:10:07;;;;;;;0.30;0.30;;;28.60;85.60;;;;;;4994417;28;20386;-68
2023/09/21 15:12:33;;;;;;;0.30;0.20;;;28.60;85.40;;;;;;4994173;28;20522;-69
2023/09/21 15:14:59;;;;;;;0.30;0.30;;;28.60;85.30;;;;;;4993881;28;20466;-70
2023/09/21 15:17:25;;;;;;;0.70;0.40;;;28.60;85.40;;;;;;4994106;28;20176;-68
2023/09/21 15:19:51;;;;;;;0.80;0.50;;;28.50;85.40;;;;;;4994614;28;20195;-69
2023/09/21 15:22:17;;;;;;;0.30;0.30;;;28.50;85.70;;;;;;4994242;28;20175;-68
2023/09/21 15:24:44;;;;;;;0.60;0.60;;;28.40;85.60;;;;;;4993556;28;20443;-68
2023/09/21 15:27:13;;;;;;;0.30;0.20;;;28.20;85.30;;;;;;4994423;28;20408;-71
2023/09/21 15:29:40;;;;;;;0.50;0.50;;;28.20;85.70;;;;;;4994175;28;20740;-70
2023/09/21 15:32:06;;;;;;;0.50;0.50;;;28.20;86.20;;;;;;4994105;28;20419;-68
2023/09/21 15:34:31;;;;;;;0.40;0.40;;;28.00;86.70;;;;;;4993493;28;20912;-69
2023/09/21 15:36:57;;;;;;;0.40;0.40;;;27.90;88.30;;;;;;4993790;28;20792;-67
2023/09/21 15:39:22;;;;;;;0.40;0.40;;;27.70;88.60;;;;;;4994355;28;20233;-68
2023/09/21 15:41:48;;;;;;;0.30;0.30;;;27.50;89.50;;;;;;4993960;28;20227;-68
2023/09/21 15:44:14;;;;;;;0.30;0.30;;;27.40;90.00;;;;;;4993628;28;20261;-69
2023/09/21 15:46:40;;;;;;;0.30;0.30;;;27.20;90.30;;;;;;4993883;28;20451;-67
2023/09/21 15:49:05;;;;;;;0.40;0.37;;;27.10;90.50;;;;;;4976308;28;20624;-67
2023/09/21 15:51:31;;;;;;;0.50;0.50;;;27.00;90.60;;;;;;4993663;28;20223;-68
2023/09/21 15:53:57;;;;;;;0.30;0.30;;;26.80;90.90;;;;;;4993486;28;20188;-67
2023/09/21 15:56:23;;;;;;;0.40;0.40;;;26.70;91.10;;;;;;4978725;28;20598;-67
2023/09/21 15:58:49;;;;;;;0.40;0.30;;;26.50;91.40;;;;;;4974318;28;20452;-70
2023/09/21 16:01:15;;;;;;;0.30;0.20;;;26.40;91.60;;;;;;4974209;28;20173;-67
2023/09/21 16:03:40;;;;;;;0.30;0.30;;;26.30;91.80;;;;;;4973770;28;20423;-68
2023/09/21 16:06:06;;;;;;;0.50;0.50;;;26.10;92.10;;;;;;4973340;28;20220;-68
2023/09/21 16:08:31;;;;;;;0.90;0.67;;;26.00;92.10;;;;;;4974299;28;20180;-68
2023/09/21 16:10:57;;;;;;;0.30;0.20;;;26.00;92.20;;;;;;4977728;28;20262;-64
2023/09/21 16:13:23;;;;;;;0.30;0.20;;;26.00;92.30;;;;;;4974082;28;20172;-63
2023/09/21 16:15:48;;;;;;;0.30;0.27;;;25.90;92.40;;;;;;4975212;28;20199;-63
2023/09/21 16:18:14;;;;;;;0.30;0.20;;;25.90;92.60;;;;;;4977084;28;20184;-63
2023/09/21 16:20:40;;;;;;;0.30;0.20;;;25.90;92.70;;;;;;4978982;28;20263;-63
2023/09/21 16:23:05;;;;;;;0.30;0.27;;;25.80;92.80;;;;;;4978092;28;20168;-62
2023/09/21 16:25:31;;;;;;;0.40;0.40;;;25.70;92.90;;;;;;4977984;28;20606;-61
2023/09/21 16:27:57;;;;;;;0.30;0.20;;;25.60;93.10;;;;;;4978012;28;20246;-62
2023/09/21 16:30:23;;;;;;;0.30;0.20;;;25.60;93.40;;;;;;4992621;28;20923;-60
2023/09/21 16:32:50;;;;;;;0.50;0.40;;;25.50;93.60;;;;;;4967070;28;20456;-61
2023/09/21 16:35:17;;;;;;;0.30;0.30;;;25.40;93.80;;;;;;4978090;28;20490;-62
2023/09/21 16:37:43;;;;;;;0.30;0.30;;;25.30;93.90;;;;;;4977706;28;20425;-63
2023/09/21 16:40:10;;;;;;;0.30;0.30;;;25.30;94.30;;;;;;4977747;28;20441;-62
2023/09/21 16:42:36;;;;;;;0.30;0.30;;;25.20;94.60;;;;;;4988781;28;20772;-65
2023/09/21 16:45:01;;;;;;;0.30;0.30;;;25.10;94.80;;;;;;4996406;28;20426;-62
2023/09/21 16:47:27;;;;;;;0.60;0.43;;;25.10;95.00;;;;;;4977557;28;20579;-63
2023/09/21 16:49:54;;;;;;;0.30;0.20;;;25.00;95.20;;;;;;4978306;28;20267;-64
2023/09/21 16:52:21;;;;;;;0.50;0.50;;;24.90;95.50;;;;;;4978636;28;20191;-61